createdAt,value
2018-12-19T00:01:18.137Z,62.26
2018-12-19T00:03:46.641Z,62.40
2018-12-19T00:06:15.119Z,62.52
2018-12-19T00:08:43.659Z,62.19
2018-12-19T00:11:12.182Z,62.01
2018-12-19T00:13:40.659Z,61.89
2018-12-19T00:16:09.339Z,61.70
2018-12-19T00:18:38.235Z,61.66
2018-12-19T00:21:07.255Z,61.37
2018-12-19T00:23:35.853Z,61.37
2018-12-19T00:26:05.203Z,61.26
2018-12-19T00:28:33.693Z,61.00
2018-12-19T00:31:03.295Z,61.34
2018-12-19T00:33:32.189Z,61.47
2018-12-19T00:36:00.670Z,61.31
2018-12-19T00:38:29.155Z,61.06
2018-12-19T00:40:57.640Z,61.16
2018-12-19T00:43:26.110Z,60.82
2018-12-19T00:45:54.637Z,60.80
2018-12-19T00:48:23.106Z,61.37
2018-12-19T00:50:51.583Z,61.37
2018-12-19T00:53:20.139Z,61.08
2018-12-19T00:55:48.624Z,61.09
2018-12-19T00:58:17.144Z,60.69
2018-12-19T01:00:45.639Z,60.55
2018-12-19T01:03:14.682Z,60.68
2018-12-19T01:05:43.215Z,60.81
2018-12-19T01:08:11.707Z,60.60
2018-12-19T01:10:40.203Z,60.52
2018-12-19T01:13:08.698Z,60.48
2018-12-19T01:15:37.219Z,59.82
2018-12-19T01:18:06.075Z,59.57
2018-12-19T01:20:34.619Z,59.92
2018-12-19T01:23:04.494Z,59.25
2018-12-19T01:25:32.979Z,59.76
2018-12-19T01:28:03.712Z,59.50
2018-12-19T01:30:32.182Z,59.45
2018-12-19T01:33:00.654Z,59.30
2018-12-19T01:35:29.152Z,59.26
2018-12-19T01:37:57.736Z,58.78
2018-12-19T01:40:26.400Z,59.29
2018-12-19T01:42:54.887Z,59.51
2018-12-19T01:45:23.358Z,59.78
2018-12-19T01:47:52.110Z,59.69
2018-12-19T01:50:20.579Z,59.76
2018-12-19T01:52:49.042Z,59.75
2018-12-19T01:55:17.516Z,59.14
2018-12-19T01:57:46.015Z,59.48
2018-12-19T02:00:14.703Z,59.45
2018-12-19T02:02:43.165Z,59.45
2018-12-19T02:05:11.660Z,59.73
2018-12-19T02:07:40.297Z,59.98
2018-12-19T02:10:08.831Z,59.67
2018-12-19T02:12:38.914Z,59.83
2018-12-19T02:15:07.616Z,59.98
2018-12-19T02:17:37.868Z,59.89
2018-12-19T02:20:06.677Z,59.68
2018-12-19T02:22:35.260Z,59.69
2018-12-19T02:25:05.303Z,59.39
2018-12-19T02:27:33.769Z,59.85
2018-12-19T02:30:05.348Z,60.05
2018-12-19T02:32:33.870Z,59.33
2018-12-19T02:35:05.913Z,59.66
2018-12-19T02:37:34.410Z,59.16
2018-12-19T02:40:06.176Z,59.03
2018-12-19T02:42:34.733Z,59.06
2018-12-19T02:45:04.606Z,58.88
2018-12-19T02:47:33.427Z,58.77
2018-12-19T02:50:03.515Z,58.72
2018-12-19T02:52:31.998Z,58.94
2018-12-19T02:55:00.501Z,59.05
2018-12-19T02:57:29.061Z,58.89
2018-12-19T02:59:57.544Z,58.82
2018-12-19T03:02:26.314Z,58.80
2018-12-19T03:04:54.899Z,58.96
2018-12-19T03:07:23.413Z,58.96
2018-12-19T03:09:52.046Z,58.89
2018-12-19T03:12:20.525Z,58.68
2018-12-19T03:14:49.031Z,58.69
2018-12-19T03:17:17.484Z,58.27
2018-12-19T03:19:46.001Z,57.84
2018-12-19T03:22:14.477Z,58.62
2018-12-19T03:24:42.989Z,58.89
2018-12-19T03:27:11.474Z,58.67
2018-12-19T03:29:39.965Z,58.63
2018-12-19T03:32:08.920Z,58.26
2018-12-19T03:34:37.423Z,57.72
2018-12-19T03:37:05.961Z,57.97
2018-12-19T03:39:34.445Z,58.25
2018-12-19T03:42:04.999Z,58.19
2018-12-19T03:44:33.846Z,58.25
2018-12-19T03:47:04.130Z,58.18
2018-12-19T03:49:32.939Z,58.73
2018-12-19T03:52:03.395Z,58.29
2018-12-19T03:54:32.019Z,57.97
2018-12-19T03:57:00.815Z,58.71
2018-12-19T03:59:30.131Z,59.36
2018-12-19T04:01:58.595Z,60.51
2018-12-19T04:04:27.345Z,61.24
2018-12-19T04:06:56.242Z,61.70
2018-12-19T04:09:24.720Z,62.00
2018-12-19T04:11:53.198Z,62.22
2018-12-19T04:14:21.678Z,62.18
2018-12-19T04:16:50.154Z,62.39
2018-12-19T04:19:18.617Z,62.55
2018-12-19T04:21:47.119Z,62.54
2018-12-19T04:24:15.619Z,62.42
2018-12-19T04:26:44.327Z,62.09
2018-12-19T04:29:12.848Z,62.52
2018-12-19T04:31:41.482Z,62.39
2018-12-19T04:34:10.395Z,63.00
2018-12-19T04:36:38.865Z,62.46
2018-12-19T04:39:07.675Z,62.57
2018-12-19T04:41:36.149Z,62.80
2018-12-19T04:44:05.617Z,62.61
2018-12-19T04:46:34.171Z,62.77
2018-12-19T04:49:03.838Z,62.97
2018-12-19T04:51:32.305Z,63.45
2018-12-19T04:54:00.807Z,63.25
2018-12-19T04:56:29.287Z,63.67
2018-12-19T04:58:57.746Z,63.95
2018-12-19T05:01:26.476Z,63.55
2018-12-19T05:03:54.957Z,64.08
2018-12-19T05:06:23.426Z,63.94
2018-12-19T05:08:52.878Z,64.71
2018-12-19T05:11:21.364Z,64.83
2018-12-19T05:13:49.858Z,64.94
2018-12-19T05:16:18.706Z,65.14
2018-12-19T05:18:47.214Z,65.67
2018-12-19T05:21:15.730Z,65.69
2018-12-19T05:23:44.282Z,65.70
2018-12-19T05:26:12.851Z,65.58
2018-12-19T05:28:42.043Z,65.96
2018-12-19T05:31:10.665Z,65.88
2018-12-19T05:33:39.237Z,66.10
2018-12-19T05:36:07.994Z,65.85
2018-12-19T05:38:36.483Z,66.10
2018-12-19T05:41:05.391Z,65.87
2018-12-19T05:43:34.188Z,66.65
2018-12-19T05:46:04.507Z,66.38
2018-12-19T05:48:32.958Z,66.99
2018-12-19T05:51:02.515Z,67.11
2018-12-19T05:53:30.987Z,67.22
2018-12-19T05:55:59.672Z,67.51
2018-12-19T05:58:28.152Z,67.33
2018-12-19T06:00:56.642Z,67.26
2018-12-19T06:03:25.121Z,67.14
2018-12-19T06:05:53.867Z,66.98
2018-12-19T06:08:22.425Z,67.30
2018-12-19T06:10:51.251Z,67.39
2018-12-19T06:13:19.838Z,67.41
2018-12-19T06:15:48.303Z,67.40
2018-12-19T06:18:20.263Z,67.87
2018-12-19T06:20:48.741Z,67.93
2018-12-19T06:23:17.331Z,66.53
2018-12-19T06:25:45.915Z,65.53
2018-12-19T06:28:14.618Z,66.08
2018-12-19T06:30:43.260Z,66.40
2018-12-19T06:33:12.001Z,67.32
2018-12-19T06:35:40.510Z,68.33
2018-12-19T06:38:08.983Z,69.19
2018-12-19T06:40:37.545Z,69.70
2018-12-19T06:43:06.288Z,70.12
2018-12-19T06:45:34.871Z,70.79
2018-12-19T06:48:04.962Z,70.90
2018-12-19T06:50:33.461Z,70.80
2018-12-19T06:53:04.264Z,71.02
2018-12-19T06:55:50.621Z,70.87
2018-12-19T06:58:19.474Z,70.82
2018-12-19T07:00:47.959Z,70.92
2018-12-19T07:03:16.455Z,70.87
2018-12-19T07:05:45.236Z,70.88
2018-12-19T07:08:13.773Z,71.02
2018-12-19T07:10:42.309Z,71.10
2018-12-19T07:13:10.874Z,71.06
2018-12-19T07:15:40.289Z,70.96
2018-12-19T07:18:08.839Z,70.82
2018-12-19T07:20:44.932Z,71.12
2018-12-19T07:23:15.004Z,71.10
2018-12-19T07:25:44.546Z,71.29
2018-12-19T07:28:13.306Z,71.15
2018-12-19T07:30:42.567Z,71.06
2018-12-19T07:33:11.174Z,71.23
2018-12-19T07:35:39.898Z,71.10
2018-12-19T07:38:08.481Z,71.05
2018-12-19T07:40:37.714Z,71.52
2018-12-19T07:43:06.252Z,71.29
2018-12-19T07:45:35.693Z,71.19
2018-12-19T07:48:05.231Z,71.59
2018-12-19T07:50:35.345Z,71.57
2018-12-19T07:53:05.952Z,71.46
2018-12-19T07:55:37.468Z,71.22
2018-12-19T07:58:08.450Z,71.41
2018-12-19T08:00:41.385Z,71.25
2018-12-19T08:03:10.373Z,71.53
2018-12-19T08:05:39.379Z,71.55
2018-12-19T08:08:35.816Z,71.55
2018-12-19T08:11:06.883Z,71.41
2018-12-19T08:13:35.524Z,71.28
2018-12-19T08:16:05.452Z,71.39
2018-12-19T08:18:34.008Z,71.59
2018-12-19T08:21:05.210Z,71.28
2018-12-19T08:23:35.464Z,71.68
2018-12-19T08:26:12.747Z,71.45
2018-12-19T08:29:09.859Z,71.39
2018-12-19T08:31:40.275Z,71.77
2018-12-19T08:39:54.276Z,71.70
2018-12-19T08:42:22.759Z,71.57
2018-12-19T08:44:51.498Z,71.50
2018-12-19T08:47:20.480Z,71.27
2018-12-19T08:49:48.961Z,71.35
2018-12-19T08:52:17.452Z,71.47
2018-12-19T08:54:46.247Z,71.38
2018-12-19T08:57:14.727Z,71.05
2018-12-19T08:59:43.224Z,71.41
2018-12-19T09:02:12.102Z,71.57
2018-12-19T09:04:40.645Z,71.64
2018-12-19T09:07:09.507Z,71.53
2018-12-19T09:09:38.011Z,71.44
2018-12-19T09:12:06.590Z,71.38
2018-12-19T09:14:35.223Z,71.38
2018-12-19T09:17:07.784Z,71.51
2018-12-19T09:19:36.613Z,71.45
2018-12-19T09:22:05.896Z,71.59
2018-12-19T09:24:34.408Z,71.38
2018-12-19T09:27:04.519Z,71.63
2018-12-19T09:29:32.998Z,71.66
2018-12-19T09:32:02.695Z,71.21
2018-12-19T09:34:31.214Z,71.42
2018-12-19T09:36:59.706Z,71.36
2018-12-19T09:39:28.209Z,71.18
2018-12-19T09:41:56.694Z,71.55
2018-12-19T09:44:25.173Z,71.20
2018-12-19T09:46:53.664Z,71.33
2018-12-19T09:49:22.155Z,71.44
2018-12-19T09:51:50.626Z,70.82
2018-12-19T09:54:19.132Z,71.04
2018-12-19T09:56:47.648Z,71.06
2018-12-19T09:59:16.197Z,71.11
2018-12-19T10:01:44.688Z,70.68
2018-12-19T10:04:13.167Z,70.64
2018-12-19T10:06:41.665Z,70.92
2018-12-19T10:09:14.738Z,71.04
2018-12-19T10:11:40.728Z,70.91
2018-12-19T10:14:09.292Z,71.11
2018-12-19T10:16:37.760Z,70.55
2018-12-19T10:19:06.247Z,70.66
2018-12-19T10:21:34.787Z,70.76
2018-12-19T10:24:04.483Z,70.62
2018-12-19T10:26:32.945Z,70.64
2018-12-19T10:29:02.898Z,70.62
2018-12-19T10:31:31.398Z,70.32
2018-12-19T10:33:59.870Z,70.18
2018-12-19T10:36:33.644Z,70.11
2018-12-19T10:39:03.794Z,69.88
2018-12-19T10:41:32.825Z,69.64
2018-12-19T10:44:02.742Z,69.59
2018-12-19T10:46:31.198Z,69.53
2018-12-19T10:48:59.714Z,69.48
2018-12-19T10:51:29.145Z,69.23
2018-12-19T10:53:57.622Z,69.63
2018-12-19T10:56:26.107Z,69.21
2018-12-19T10:58:54.572Z,69.37
2018-12-19T11:01:23.060Z,68.83
2018-12-19T11:03:51.615Z,68.80
2018-12-19T11:06:20.108Z,68.60
2018-12-19T11:08:48.774Z,68.34
2018-12-19T11:11:17.370Z,67.83
2018-12-19T11:13:46.041Z,67.92
2018-12-19T11:16:14.572Z,67.71
2018-12-19T11:18:43.081Z,67.39
2018-12-19T11:21:12.581Z,67.46
2018-12-19T11:23:41.340Z,67.69
2018-12-19T11:26:10.053Z,67.44
2018-12-19T11:28:38.522Z,67.37
2018-12-19T11:31:07.025Z,67.30
2018-12-19T11:33:35.629Z,66.90
2018-12-19T11:36:05.537Z,66.53
2018-12-19T11:38:34.283Z,66.47
2018-12-19T11:41:04.632Z,66.83
2018-12-19T11:43:33.138Z,66.42
2018-12-19T11:46:02.977Z,66.10
2018-12-19T11:48:31.450Z,66.35
2018-12-19T11:51:00.163Z,65.77
2018-12-19T11:53:28.714Z,65.60
2018-12-19T11:55:57.258Z,65.48
2018-12-19T11:58:25.975Z,65.63
2018-12-19T12:00:54.605Z,65.70
2018-12-19T12:03:23.111Z,65.07
2018-12-19T12:05:51.671Z,65.40
2018-12-19T12:08:20.540Z,64.80
2018-12-19T12:10:48.993Z,65.24
2018-12-19T12:13:17.467Z,64.78
2018-12-19T12:15:46.160Z,65.47
2018-12-19T12:18:14.703Z,65.28
2018-12-19T12:20:43.158Z,65.51
2018-12-19T12:23:11.660Z,65.71
2018-12-19T12:25:40.280Z,65.46
2018-12-19T12:28:09.076Z,65.51
2018-12-19T12:30:37.605Z,65.63
2018-12-19T12:33:06.234Z,65.59
2018-12-19T12:35:34.722Z,65.69
2018-12-19T12:38:05.432Z,65.60
2018-12-19T12:40:34.380Z,65.21
2018-12-19T12:43:05.439Z,65.00
2018-12-19T12:45:33.991Z,65.08
2018-12-19T12:48:03.994Z,65.74
2018-12-19T12:50:32.608Z,65.33
2018-12-19T12:53:04.539Z,65.57
2018-12-19T12:55:33.461Z,64.40
2018-12-19T12:58:03.853Z,64.77
2018-12-19T13:00:32.451Z,65.16
2018-12-19T13:03:00.947Z,64.85
2018-12-19T13:05:29.485Z,65.32
2018-12-19T13:07:57.959Z,66.32
2018-12-19T13:10:26.455Z,66.10
2018-12-19T13:12:54.950Z,66.01
2018-12-19T13:15:28.484Z,65.03
2018-12-19T13:17:57.459Z,66.34
2018-12-19T13:20:26.729Z,66.53
2018-12-19T13:22:55.222Z,66.12
2018-12-19T13:25:23.719Z,66.51
2018-12-19T13:27:52.402Z,67.05
2018-12-19T13:30:20.891Z,66.75
2018-12-19T13:32:49.476Z,66.49
2018-12-19T13:35:18.068Z,66.10
2018-12-19T13:37:46.579Z,66.52
2018-12-19T13:40:15.058Z,66.56
2018-12-19T13:42:43.621Z,66.35
2018-12-19T13:45:12.239Z,66.05
2018-12-19T13:47:40.714Z,65.59
2018-12-19T13:50:09.465Z,64.16
2018-12-19T13:52:38.538Z,64.30
2018-12-19T13:55:07.307Z,63.99
2018-12-19T13:57:35.860Z,64.51
2018-12-19T14:00:07.806Z,64.08
2018-12-19T14:02:36.483Z,64.04
2018-12-19T14:05:05.310Z,64.03
2018-12-19T14:07:33.760Z,64.20
2018-12-19T14:10:03.752Z,63.79
2018-12-19T14:12:32.246Z,63.86
2018-12-19T14:15:00.708Z,63.72
2018-12-19T14:17:29.201Z,64.76
2018-12-19T14:19:58.031Z,64.07
2018-12-19T14:22:26.534Z,63.64
2018-12-19T14:24:55.054Z,64.04
2018-12-19T14:27:23.545Z,64.85
2018-12-19T14:29:52.028Z,65.27
2018-12-19T14:32:20.537Z,66.16
2018-12-19T14:34:49.148Z,66.62
2018-12-19T14:37:17.654Z,65.78
2018-12-19T14:39:46.426Z,65.57
2018-12-19T14:42:19.066Z,65.91
2018-12-19T14:44:45.660Z,65.60
2018-12-19T14:47:14.145Z,66.30
2018-12-19T14:49:42.610Z,66.16
2018-12-19T14:52:11.123Z,65.69
2018-12-19T14:54:43.122Z,66.36
2018-12-19T14:57:11.627Z,66.99
2018-12-19T14:59:40.103Z,66.10
2018-12-19T15:02:08.582Z,67.19
2018-12-19T15:04:37.117Z,66.55
2018-12-19T15:07:05.614Z,66.85
2018-12-19T15:09:34.134Z,66.79
2018-12-19T15:12:05.298Z,67.00
2018-12-19T15:14:33.806Z,66.99
2018-12-19T15:17:04.143Z,67.28
2018-12-19T15:19:32.908Z,67.18
2018-12-19T15:22:02.785Z,67.53
2018-12-19T15:24:31.300Z,67.51
2018-12-19T15:26:59.798Z,67.52
2018-12-19T15:29:28.279Z,67.27
2018-12-19T15:31:56.803Z,67.79
2018-12-19T15:34:25.299Z,67.89
2018-12-19T15:36:53.788Z,67.56
2018-12-19T15:39:22.377Z,67.57
2018-12-19T15:41:51.043Z,67.56
2018-12-19T15:44:19.508Z,67.52
2018-12-19T15:46:48.278Z,68.16
2018-12-19T15:49:16.879Z,68.10
2018-12-19T15:51:45.417Z,68.48
2018-12-19T15:54:13.924Z,68.60
2018-12-19T15:56:42.684Z,68.28
2018-12-19T15:59:11.214Z,68.61
2018-12-19T16:01:39.726Z,68.55
2018-12-19T16:04:08.206Z,68.49
2018-12-19T16:06:36.715Z,68.14
2018-12-19T16:09:06.865Z,68.15
2018-12-19T16:11:35.375Z,67.90
2018-12-19T16:14:05.306Z,68.32
2018-12-19T16:16:33.850Z,66.76
2018-12-19T16:19:03.866Z,67.26
2018-12-19T16:21:32.349Z,66.66
2018-12-19T16:24:00.846Z,68.17
2018-12-19T16:26:29.348Z,68.57
2018-12-19T16:28:58.119Z,68.78
2018-12-19T16:31:26.599Z,69.36
2018-12-19T16:33:55.137Z,69.21
2018-12-19T16:36:23.664Z,69.27
2018-12-19T16:38:52.275Z,69.54
2018-12-19T16:41:20.845Z,69.84
2018-12-19T16:43:49.417Z,70.00
2018-12-19T16:46:17.905Z,70.17
2018-12-19T16:48:46.409Z,70.17
2018-12-19T16:51:16.654Z,69.91
2018-12-19T16:53:45.267Z,70.07
2018-12-19T16:56:14.191Z,70.48
2018-12-19T16:58:42.707Z,69.71
2018-12-19T17:01:11.259Z,69.22
2018-12-19T17:03:39.745Z,69.52
2018-12-19T17:06:08.445Z,69.79
2018-12-19T17:08:37.462Z,69.30
2018-12-19T17:11:05.939Z,69.28
2018-12-19T17:13:34.656Z,69.23
2018-12-19T17:16:04.920Z,69.67
2018-12-19T17:18:33.404Z,69.38
2018-12-19T17:21:06.128Z,69.72
2018-12-19T17:23:34.681Z,68.88
2018-12-19T17:26:06.205Z,69.52
2018-12-19T17:28:34.859Z,69.35
2018-12-19T17:31:07.194Z,69.47
2018-12-19T17:33:35.725Z,69.05
2018-12-19T17:36:06.021Z,69.71
2018-12-19T17:38:34.511Z,69.20
2018-12-19T17:41:04.813Z,68.93
2018-12-19T17:43:33.293Z,68.53
2018-12-19T17:46:03.177Z,69.23
2018-12-19T17:48:31.725Z,69.59
2018-12-19T17:51:00.316Z,70.03
2018-12-19T17:53:28.796Z,69.98
2018-12-19T17:55:57.387Z,70.48
2018-12-19T17:58:25.882Z,70.35
2018-12-19T18:00:54.487Z,70.34
2018-12-19T18:03:22.983Z,70.27
2018-12-19T18:05:51.461Z,69.60
2018-12-19T18:08:19.923Z,69.82
2018-12-19T18:10:48.617Z,70.03
2018-12-19T18:13:17.130Z,69.61
2018-12-19T18:15:45.647Z,69.94
2018-12-19T18:18:14.188Z,69.80
2018-12-19T18:20:42.993Z,69.60
2018-12-19T18:23:11.504Z,69.12
2018-12-19T18:25:40.069Z,69.92
2018-12-19T18:28:08.686Z,69.87
2018-12-19T18:30:37.460Z,70.15
2018-12-19T18:33:06.283Z,69.52
2018-12-19T18:35:34.910Z,69.76
2018-12-19T18:38:05.439Z,69.75
2018-12-19T18:40:34.008Z,69.27
2018-12-19T18:43:03.760Z,69.81
2018-12-19T18:45:32.291Z,69.79
2018-12-19T18:48:00.937Z,69.78
2018-12-19T18:50:29.809Z,69.71
2018-12-19T18:52:58.473Z,69.96
2018-12-19T18:55:27.153Z,69.75
2018-12-19T18:57:56.179Z,69.67
2018-12-19T19:00:34.827Z,69.65
2018-12-19T19:03:05.137Z,69.30
2018-12-19T19:05:33.689Z,69.28
2018-12-19T19:08:04.922Z,69.68
2018-12-19T19:10:33.472Z,69.32
2018-12-19T19:13:03.754Z,69.69
2018-12-19T19:15:32.746Z,69.33
2018-12-19T19:18:03.894Z,69.57
2018-12-19T19:20:33.389Z,69.70
2018-12-19T19:23:02.856Z,68.92
2018-12-19T19:25:31.528Z,68.79
2018-12-19T19:28:00.831Z,69.54
2018-12-19T19:30:29.389Z,69.41
2018-12-19T19:32:58.574Z,69.58
2018-12-19T19:35:27.152Z,68.75
2018-12-19T19:37:55.750Z,68.56
2018-12-19T19:40:24.339Z,68.52
2018-12-19T19:42:52.954Z,68.17
2018-12-19T19:45:21.593Z,67.92
2018-12-19T19:47:50.216Z,67.76
2018-12-19T19:50:18.980Z,68.53
2018-12-19T19:52:48.034Z,68.20
2018-12-19T19:55:16.821Z,67.44
2018-12-19T19:57:45.913Z,68.26
2018-12-19T20:00:16.817Z,68.71
2018-12-19T20:02:45.539Z,68.03
2018-12-19T20:05:14.457Z,68.47
2018-12-19T20:07:43.962Z,68.23
2018-12-19T20:10:12.992Z,68.53
2018-12-19T20:12:42.043Z,68.21
2018-12-19T20:15:10.672Z,68.44
2018-12-19T20:17:40.400Z,68.75
2018-12-19T20:20:10.307Z,68.63
2018-12-19T20:22:39.136Z,69.30
2018-12-19T20:25:07.894Z,68.86
2018-12-19T20:27:36.642Z,68.81
2018-12-19T20:30:10.419Z,69.42
2018-12-19T20:32:39.076Z,70.16
2018-12-19T20:35:07.869Z,70.01
2018-12-19T20:37:37.296Z,70.30
2018-12-19T20:40:06.249Z,70.55
2018-12-19T20:42:36.502Z,70.60
2018-12-19T20:45:05.948Z,70.82
2018-12-19T20:47:34.816Z,70.70
2018-12-19T20:50:04.469Z,70.85
2018-12-19T20:52:33.061Z,71.02
2018-12-19T20:55:03.329Z,71.90
2018-12-19T20:57:32.162Z,72.25
2018-12-19T21:00:00.760Z,72.70
2018-12-19T21:02:29.387Z,72.26
2018-12-19T21:04:58.073Z,72.18
2018-12-19T21:07:26.727Z,72.66
2018-12-19T21:09:55.306Z,73.37
2018-12-19T21:12:23.969Z,73.74
2018-12-19T21:14:53.187Z,74.21
2018-12-19T21:17:26.944Z,74.07
2018-12-19T21:19:55.725Z,74.58
2018-12-19T21:22:24.413Z,74.19
2018-12-19T21:24:52.969Z,74.66
2018-12-19T21:27:22.522Z,75.12
2018-12-19T21:29:51.338Z,75.12
2018-12-19T21:32:20.092Z,74.97
2018-12-19T21:34:48.701Z,75.14
2018-12-19T21:37:17.624Z,74.97
2018-12-19T21:39:46.172Z,75.11
2018-12-19T21:42:14.754Z,75.31
2018-12-19T21:44:43.471Z,75.40
2018-12-19T21:47:12.116Z,75.45
2018-12-19T21:49:40.700Z,75.23
2018-12-19T21:52:09.265Z,75.07
2018-12-19T21:54:38.188Z,75.36
2018-12-19T21:57:06.834Z,75.13
2018-12-19T21:59:35.715Z,75.92
2018-12-19T22:02:05.791Z,75.85
2018-12-19T22:04:34.377Z,75.75
2018-12-19T22:07:04.945Z,75.44
2018-12-19T22:09:33.492Z,75.49
2018-12-19T22:12:03.227Z,75.34
2018-12-19T22:14:31.749Z,75.43
2018-12-19T22:17:05.616Z,75.74
2018-12-19T22:19:34.136Z,76.19
2018-12-19T22:22:03.590Z,75.54
2018-12-19T22:24:32.300Z,75.40
2018-12-19T22:27:00.783Z,75.40
2018-12-19T22:29:29.698Z,75.30
2018-12-19T22:31:58.648Z,75.15
2018-12-19T22:34:27.206Z,75.23
2018-12-19T22:36:55.795Z,75.60
2018-12-19T22:39:24.332Z,74.92
2018-12-19T22:41:53.042Z,75.52
2018-12-19T22:44:21.728Z,75.44
2018-12-19T22:46:55.996Z,75.11
2018-12-19T22:49:24.579Z,75.43
2018-12-19T22:51:53.084Z,75.18
2018-12-19T22:54:21.813Z,74.82
2018-12-19T22:56:50.489Z,74.74
2018-12-19T22:59:19.160Z,74.72
2018-12-19T23:02:54.420Z,75.19
2018-12-19T23:05:28.230Z,74.81
2018-12-19T23:07:56.796Z,75.09
2018-12-19T23:10:25.489Z,75.36
2018-12-19T23:12:54.087Z,75.38
2018-12-19T23:15:24.620Z,75.47
2018-12-19T23:17:55.559Z,75.16
2018-12-19T23:20:24.168Z,74.92
2018-12-19T23:22:52.733Z,75.30
2018-12-19T23:25:21.288Z,75.13
2018-12-19T23:27:49.794Z,75.35
2018-12-19T23:30:18.280Z,75.10
2018-12-19T23:32:47.012Z,75.61
2018-12-19T23:35:15.561Z,75.45
2018-12-19T23:37:44.066Z,75.36
2018-12-19T23:40:12.674Z,75.29
2018-12-19T23:42:41.330Z,74.85
2018-12-19T23:45:10.198Z,74.95
2018-12-19T23:47:38.772Z,74.78
2018-12-19T23:50:07.442Z,75.11
2018-12-19T23:52:36.555Z,74.95
2018-12-19T23:55:06.767Z,75.04
2018-12-19T23:57:35.401Z,75.02
